createdAt,value
2019-05-22T00:04:54.893Z,14.02
2019-05-22T00:10:02.047Z,14.30
2019-05-22T00:15:09.229Z,14.31
2019-05-22T00:20:16.281Z,13.90
2019-05-22T00:25:23.421Z,13.36
2019-05-22T00:30:30.537Z,13.67
2019-05-22T00:35:37.685Z,13.96
2019-05-22T00:40:44.800Z,13.40
2019-05-22T00:45:51.902Z,13.09
2019-05-22T00:50:59.030Z,12.85
2019-05-22T00:56:06.166Z,11.53
2019-05-22T01:01:13.272Z,11.49
2019-05-22T01:06:20.503Z,11.08
2019-05-22T01:11:27.634Z,10.77
2019-05-22T01:16:34.785Z,9.75
2019-05-22T01:21:41.900Z,9.34
2019-05-22T01:26:49.048Z,9.86
2019-05-22T01:31:56.284Z,10.15
2019-05-22T01:37:03.452Z,10.24
2019-05-22T01:42:10.606Z,10.74
2019-05-22T01:47:17.792Z,11.22
2019-05-22T01:52:24.936Z,11.36
2019-05-22T01:57:32.037Z,11.29
2019-05-22T02:02:39.225Z,10.93
2019-05-22T02:07:46.377Z,10.14
2019-05-22T02:12:53.517Z,9.77
2019-05-22T02:18:00.754Z,9.53
2019-05-22T02:23:07.918Z,9.34
2019-05-22T02:28:15.299Z,9.34
2019-05-22T02:33:22.442Z,9.20
2019-05-22T02:38:29.623Z,9.52
2019-05-22T02:43:36.789Z,9.22
2019-05-22T02:48:43.960Z,8.62
2019-05-22T02:53:51.024Z,7.95
2019-05-22T02:58:58.199Z,8.37
2019-05-22T03:04:05.419Z,8.97
2019-05-22T03:09:12.568Z,9.46
2019-05-22T03:14:19.699Z,10.53
2019-05-22T03:19:26.824Z,10.33
2019-05-22T03:24:33.974Z,9.40
2019-05-22T03:29:41.119Z,8.68
2019-05-22T03:34:48.234Z,9.07
2019-05-22T03:39:55.381Z,8.91
2019-05-22T03:45:02.659Z,9.14
2019-05-22T03:50:09.769Z,8.87
2019-05-22T03:55:16.910Z,10.42
2019-05-22T04:00:24.096Z,14.26
2019-05-22T04:05:31.251Z,11.78
2019-05-22T04:10:40.998Z,11.29
2019-05-22T04:15:45.079Z,11.06
2019-05-22T04:20:52.199Z,11.64
2019-05-22T04:25:59.338Z,11.85
2019-05-22T04:31:06.508Z,11.58
2019-05-22T04:36:13.677Z,10.77
2019-05-22T04:41:20.904Z,11.33
2019-05-22T04:46:28.033Z,12.21
2019-05-22T04:51:35.162Z,12.23
2019-05-22T04:56:42.322Z,12.75
2019-05-22T05:01:49.435Z,13.52
2019-05-22T05:06:56.560Z,14.33
2019-05-22T05:12:03.805Z,13.96
2019-05-22T05:17:11.895Z,13.62
2019-05-22T05:22:19.094Z,13.63
2019-05-22T05:27:26.246Z,12.72
2019-05-22T05:32:33.391Z,12.80
2019-05-22T05:37:40.523Z,12.18
2019-05-22T05:42:47.675Z,12.48
2019-05-22T05:47:54.822Z,12.06
2019-05-22T05:53:01.925Z,11.95
2019-05-22T05:58:09.021Z,11.05
2019-05-22T06:03:16.306Z,10.65
2019-05-22T06:08:23.488Z,10.76
2019-05-22T06:13:30.727Z,11.18
2019-05-22T06:18:39.413Z,11.94
2019-05-22T06:23:46.906Z,12.13
2019-05-22T06:28:54.078Z,12.01
2019-05-22T06:34:02.639Z,11.85
2019-05-22T06:39:09.765Z,12.08
2019-05-22T06:44:18.357Z,12.02
2019-05-22T06:49:25.506Z,13.16
2019-05-22T06:54:33.052Z,13.01
2019-05-22T06:59:40.185Z,13.18
2019-05-22T07:04:48.149Z,13.89
2019-05-22T07:09:55.306Z,14.01
2019-05-22T07:15:02.714Z,13.77
2019-05-22T07:20:09.699Z,13.10
2019-05-22T07:25:16.822Z,13.29
2019-05-22T07:30:23.966Z,13.58
2019-05-22T07:35:49.898Z,13.19
2019-05-22T07:40:38.059Z,13.15
2019-05-22T07:45:45.206Z,13.10
2019-05-22T07:50:52.422Z,12.64
2019-05-22T07:55:59.673Z,12.52
2019-05-22T08:01:06.791Z,12.75
2019-05-22T08:06:14.204Z,12.56
2019-05-22T08:11:21.889Z,12.77
2019-05-22T08:16:29.097Z,13.18
2019-05-22T08:21:36.493Z,12.67
2019-05-22T08:26:53.834Z,12.44
2019-05-22T08:31:50.318Z,12.67
2019-05-22T08:36:57.449Z,12.67
2019-05-22T08:42:04.612Z,12.82
2019-05-22T08:47:11.830Z,13.32
2019-05-22T08:52:23.813Z,13.03
2019-05-22T08:57:25.738Z,13.82
2019-05-22T09:02:32.887Z,13.92
2019-05-22T09:07:40.091Z,14.40
2019-05-22T09:12:47.216Z,15.89
2019-05-22T09:17:54.352Z,16.27
2019-05-22T09:23:01.512Z,16.34
2019-05-22T09:28:08.679Z,14.06
2019-05-22T09:33:15.820Z,14.25
2019-05-22T09:38:23.300Z,17.98
2019-05-22T09:43:31.236Z,18.88
2019-05-22T09:48:38.347Z,20.19
2019-05-22T09:53:45.513Z,16.08
2019-05-22T09:58:52.628Z,15.54
2019-05-22T10:03:59.768Z,18.26
2019-05-22T10:09:06.869Z,19.59
2019-05-22T10:14:14.394Z,19.53
2019-05-22T10:19:21.514Z,19.53
2019-05-22T10:24:28.646Z,18.83
2019-05-22T10:29:35.817Z,17.61
2019-05-22T10:34:42.998Z,17.91
2019-05-22T10:39:50.118Z,17.41
2019-05-22T10:44:57.299Z,16.90
2019-05-22T10:50:04.462Z,14.84
2019-05-22T10:55:11.647Z,15.37
2019-05-22T11:00:18.821Z,14.49
2019-05-22T11:05:25.982Z,13.59
2019-05-22T11:10:33.157Z,12.87
2019-05-22T11:15:40.321Z,13.36
2019-05-22T11:20:47.489Z,13.36
2019-05-22T11:25:54.632Z,13.20
2019-05-22T11:31:01.782Z,12.92
2019-05-22T11:36:08.902Z,13.35
2019-05-22T11:41:16.060Z,13.19
2019-05-22T11:46:23.198Z,13.30
2019-05-22T11:51:30.334Z,12.48
2019-05-22T11:56:37.469Z,12.41
2019-05-22T12:01:44.599Z,12.46
2019-05-22T12:06:53.727Z,12.22
2019-05-22T12:11:58.447Z,12.30
2019-05-22T12:17:05.681Z,11.77
2019-05-22T12:22:12.847Z,11.59
2019-05-22T12:27:20.065Z,12.05
2019-05-22T12:32:27.200Z,11.40
2019-05-22T12:37:34.466Z,10.42
2019-05-22T12:42:41.609Z,10.64
2019-05-22T12:47:50.629Z,10.45
2019-05-22T12:52:57.783Z,10.63
2019-05-22T12:58:04.959Z,10.52
2019-05-22T13:03:14.763Z,10.37
2019-05-22T13:08:23.259Z,9.97
2019-05-22T13:13:31.693Z,9.91
2019-05-22T13:18:39.752Z,9.49
2019-05-22T13:23:49.100Z,8.64
2019-05-22T13:28:57.648Z,9.01
2019-05-22T13:34:06.620Z,9.63
2019-05-22T13:39:14.766Z,8.84
2019-05-22T13:44:24.473Z,9.14
2019-05-22T13:49:33.098Z,9.30
2019-05-22T13:54:41.692Z,8.92
2019-05-22T13:59:49.692Z,9.67
2019-05-22T14:04:58.563Z,9.24
2019-05-22T14:10:08.090Z,10.06
2019-05-22T14:15:17.388Z,10.13
2019-05-22T14:20:26.133Z,9.40
2019-05-22T14:25:33.344Z,9.49
2019-05-22T14:30:40.647Z,10.17
2019-05-22T14:35:49.279Z,9.37
2019-05-22T14:40:54.784Z,9.22
